Time;durP1;ratioP1;P1;durP2;ratioP2;P2;SDS_P1;SDS_P2;PMS_P1;PMS_P2;Temp;Humidity;BMP_temperature;BMP_pressure;BME280_temperature;BME280_humidity;BME280_pressure;Samples;Min_cycle;Max_cycle;Signal;HPM_P1;HPM_P2
2023/12/03 00:01:24;;;;;;;8.13;5.87;;;-2.80;76.70;;;-3.89;83.82;98211.44;5087128;28;20443;-75
2023/12/03 00:03:51;;;;;;;9.53;5.97;;;-2.90;76.30;;;-3.92;83.84;98211.69;5102203;28;20512;-74
2023/12/03 00:06:19;;;;;;;9.23;6.80;;;-2.80;76.50;;;-3.95;83.46;98221.63;5088870;28;20456;-74
2023/12/03 00:08:46;;;;;;;6.93;5.60;;;-2.80;76.20;;;-3.90;83.64;98211.53;5091564;28;20473;-74
2023/12/03 00:11:13;;;;;;;7.20;6.10;;;-2.80;76.50;;;-3.95;84.23;98221.63;5104445;28;20191;-74
2023/12/03 00:13:41;;;;;;;8.73;6.20;;;-2.80;76.30;;;-3.96;83.76;98226.06;5092518;28;20512;-74
2023/12/03 00:16:10;;;;;;;11.80;7.20;;;-2.80;76.20;;;-3.84;84.34;98224.28;5083132;28;20455;-74
2023/12/03 00:18:39;;;;;;;7.80;6.03;;;-2.80;76.70;;;-4.00;83.98;98229.91;5085530;28;20457;-74
2023/12/03 00:21:07;;;;;;;9.43;6.53;;;-2.90;76.10;;;-3.93;84.46;98230.25;5096222;28;20463;-74
2023/12/03 00:23:34;;;;;;;7.95;6.20;;;-2.90;76.60;;;-3.81;83.32;98229.31;5098840;28;20437;-75
2023/12/03 00:26:01;;;;;;;7.07;6.30;;;-2.80;76.50;;;-3.79;83.56;98226.53;5080595;28;20198;-74
2023/12/03 00:28:29;;;;;;;10.07;6.97;;;-2.70;76.50;;;-3.83;83.95;98236.53;5098905;28;20521;-74
2023/12/03 00:30:56;;;;;;;7.93;6.50;;;-2.70;76.50;;;-3.94;84.51;98239.16;5087504;28;20448;-75
2023/12/03 00:33:24;;;;;;;8.30;6.87;;;-2.80;76.50;;;-4.00;83.30;98225.47;5088309;28;20449;-75
2023/12/03 00:35:52;;;;;;;10.20;6.70;;;-2.80;76.10;;;-4.67;84.17;98136.47;5086749;28;20516;-74
2023/12/03 00:38:19;;;;;;;12.57;7.77;;;-2.90;76.40;;;-4.02;84.66;98239.72;5077267;28;20529;-75
2023/12/03 00:40:46;;;;;;;10.47;6.90;;;-2.90;76.60;;;-4.11;85.06;98228.09;5089955;28;20509;-75
2023/12/03 00:43:13;;;;;;;8.33;6.87;;;-2.90;76.80;;;-4.06;84.91;98241.75;5085070;28;20505;-75
2023/12/03 00:45:40;;;;;;;7.87;6.97;;;-2.90;77.00;;;-4.05;84.59;98248.72;5088462;28;20459;-75
2023/12/03 00:48:07;;;;;;;8.73;7.30;;;-2.90;76.60;;;-4.07;84.75;98253.28;5103289;28;20460;-73
2023/12/03 00:50:36;;;;;;;8.10;6.90;;;-2.90;76.70;;;-3.87;84.16;98266.75;5089809;28;20478;-74
2023/12/03 00:53:03;;;;;;;9.50;7.83;;;-2.90;76.80;;;-4.18;84.25;98218.94;5088951;28;20190;-75
2023/12/03 00:55:30;;;;;;;10.30;7.67;;;-2.80;76.80;;;-3.93;83.22;98262.81;5085566;28;20967;-74
2023/12/03 00:57:58;;;;;;;9.13;7.50;;;-2.80;76.30;;;-4.04;84.53;98268.06;5088960;28;20455;-74
2023/12/03 01:00:25;;;;;;;10.80;7.27;;;-2.80;76.50;;;-3.93;83.82;98272.50;5089830;28;20914;-76
2023/12/03 01:02:52;;;;;;;9.13;6.90;;;-2.80;76.50;;;-3.91;83.25;98297.00;5089154;28;20611;-74
2023/12/03 01:05:19;;;;;;;11.40;7.80;;;-2.80;76.10;;;-3.91;82.66;98282.00;5100936;28;20252;-74
2023/12/03 01:07:49;;;;;;;10.30;7.28;;;-2.80;75.90;;;-3.92;82.27;98284.75;5081856;28;20448;-74
2023/12/03 01:10:16;;;;;;;9.90;7.60;;;-2.80;75.30;;;-3.89;82.39;98293.28;5095407;28;20202;-74
2023/12/03 01:12:43;;;;;;;11.23;6.80;;;-2.80;75.40;;;-4.03;82.40;98269.72;5103828;28;21586;-75
2023/12/03 01:15:10;;;;;;;11.30;7.43;;;-2.80;75.70;;;-4.00;82.91;98288.81;5089129;28;21014;-74
2023/12/03 01:17:38;;;;;;;12.10;8.17;;;-2.80;75.60;;;-3.86;82.19;98297.50;5088347;28;20436;-74
2023/12/03 01:20:08;;;;;;;9.85;8.27;;;-2.80;75.50;;;-3.90;81.95;98282.81;5088213;28;20470;-73
2023/12/03 01:22:35;;;;;;;10.90;7.78;;;-2.80;75.40;;;-3.78;82.78;98305.66;5085866;28;20581;-74
2023/12/03 01:25:04;;;;;;;11.67;8.77;;;-2.80;75.60;;;-3.82;82.58;98301.59;5088823;28;20197;-73
2023/12/03 01:27:31;;;;;;;11.37;7.10;;;-2.70;76.00;;;-3.78;82.52;98310.13;5088407;28;21059;-73
2023/12/03 01:29:58;;;;;;;11.33;7.87;;;-2.70;75.90;;;-4.58;82.16;98184.06;5101558;28;20894;-74
2023/12/03 01:32:26;;;;;;;11.60;7.77;;;-2.70;75.40;;;-3.89;83.15;98310.91;5084719;28;20504;-74
2023/12/03 01:34:53;;;;;;;11.00;8.30;;;-2.80;75.50;;;-3.91;82.70;98311.03;5084213;28;20443;-74
2023/12/03 01:37:21;;;;;;;11.20;8.67;;;-2.80;75.50;;;-3.90;82.61;98314.50;5088295;28;20444;-74
2023/12/03 01:39:48;;;;;;;10.80;7.00;;;-2.80;75.50;;;-4.00;83.34;98320.50;5088086;28;21009;-76
2023/12/03 01:42:17;;;;;;;12.47;8.70;;;-2.80;75.70;;;-3.95;82.56;98321.94;5086718;28;20458;-74
2023/12/03 01:44:45;;;;;;;10.97;8.57;;;-2.80;75.40;;;-4.32;83.26;98256.94;5088397;28;20444;-74
2023/12/03 01:47:14;;;;;;;11.60;8.30;;;-2.80;75.80;;;-4.02;83.71;98327.69;5086745;28;20548;-73
2023/12/03 01:49:41;;;;;;;10.93;8.77;;;-2.80;75.50;;;-3.91;83.08;98318.13;5086095;28;20467;-74
2023/12/03 01:52:09;;;;;;;16.33;9.80;;;-2.80;75.80;;;-4.11;83.18;98309.91;5096658;28;20216;-75
2023/12/03 01:54:37;;;;;;;13.88;9.60;;;-2.80;75.80;;;-4.13;83.59;98320.56;5088524;28;20476;-74
2023/12/03 01:57:05;;;;;;;11.03;8.93;;;-2.80;75.90;;;-3.90;82.73;98325.94;5086175;28;20190;-75
2023/12/03 01:59:34;;;;;;;10.27;7.53;;;-2.80;75.80;;;-3.88;82.78;98328.44;5084782;28;20437;-74
2023/12/03 02:02:01;;;;;;;12.43;8.67;;;-2.80;75.80;;;-3.89;81.95;98321.47;5084537;28;20448;-74
2023/12/03 02:04:28;;;;;;;12.90;8.30;;;-2.80;75.50;;;-4.04;84.10;98323.50;5084803;28;20448;-74
2023/12/03 02:06:55;;;;;;;12.87;8.30;;;-2.80;75.80;;;-3.96;84.20;98329.00;5086014;28;20456;-74
2023/12/03 02:09:24;;;;;;;13.47;8.97;;;-2.80;76.00;;;-3.83;82.88;98328.94;5088144;28;20500;-74
2023/12/03 02:11:52;;;;;;;15.40;10.50;;;-2.80;76.00;;;-3.96;83.19;98313.19;5081850;28;20792;-74
2023/12/03 02:14:19;;;;;;;11.97;9.37;;;-2.80;76.00;;;-4.16;84.16;98318.16;5086432;28;20440;-75
2023/12/03 02:16:49;;;;;;;11.50;9.50;;;-2.90;75.80;;;-4.10;84.25;98318.66;5085400;28;20451;-75
2023/12/03 02:19:16;;;;;;;14.35;10.05;;;-2.90;75.80;;;-3.96;83.17;98336.94;5086809;28;20452;-74
2023/12/03 02:21:43;;;;;;;15.20;9.53;;;-2.80;76.30;;;-3.87;83.75;98330.13;5080041;28;20243;-74
2023/12/03 02:24:12;;;;;;;14.40;10.40;;;-2.80;76.00;;;-3.90;84.19;98325.94;5083693;28;20949;-74
2023/12/03 02:26:39;;;;;;;16.03;10.53;;;-2.70;76.50;;;-3.92;84.90;98324.34;5082210;28;20941;-75
2023/12/03 02:29:06;;;;;;;15.67;11.07;;;-2.80;76.40;;;-3.97;84.70;98332.63;5086402;28;20487;-75
2023/12/03 02:31:33;;;;;;;16.30;10.40;;;-2.80;76.60;;;-4.06;85.06;98331.50;5101935;28;20949;-75
2023/12/03 02:34:08;;;;;;;14.73;9.67;;;-2.80;76.60;;;-3.80;84.65;98334.00;5087270;28;20665;-75
2023/12/03 02:36:35;;;;;;;14.87;10.10;;;-2.80;76.90;;;-3.94;84.38;98334.19;5085387;28;20475;-74
2023/12/03 02:39:03;;;;;;;15.43;10.63;;;-2.70;76.50;;;-4.09;84.88;98326.47;5080029;28;20540;-74
2023/12/03 02:41:31;;;;;;;15.43;11.10;;;-2.80;76.60;;;-3.77;84.42;98335.56;5085583;28;21041;-74
2023/12/03 02:43:59;;;;;;;15.70;12.13;;;-2.70;77.00;;;-4.05;84.58;98338.47;5087904;28;20467;-74
2023/12/03 02:46:26;;;;;;;17.20;12.23;;;-2.80;76.60;;;-4.19;85.88;98331.59;5086416;28;20509;-73
2023/12/03 02:48:53;;;;;;;15.83;11.23;;;-2.90;76.70;;;-4.23;86.37;98338.06;5077185;28;20479;-74
2023/12/03 02:51:20;;;;;;;16.63;11.53;;;-3.00;77.10;;;-4.07;85.94;98350.13;5085290;28;20994;-75
2023/12/03 02:53:50;;;;;;;15.40;10.50;;;-2.90;77.40;;;-4.38;85.45;98275.88;5070815;28;20494;-73
2023/12/03 02:56:17;;;;;;;17.73;10.90;;;-2.90;77.40;;;-3.90;85.06;98346.19;5079806;28;20439;-73
2023/12/03 02:58:45;;;;;;;20.48;12.80;;;-2.80;77.50;;;-4.22;86.59;98341.53;5075098;28;20504;-74
2023/12/03 03:01:13;;;;;;;17.60;11.87;;;-2.90;77.40;;;-4.15;87.16;98353.31;5073401;28;20186;-74
2023/12/03 03:03:40;;;;;;;21.00;12.00;;;-2.90;77.60;;;-4.73;86.69;98259.88;5077637;28;20510;-76
2023/12/03 03:06:08;;;;;;;17.83;12.00;;;-2.90;77.90;;;-4.05;86.08;98362.22;5078047;28;20448;-74
2023/12/03 03:08:35;;;;;;;18.02;12.23;;;-2.90;77.60;;;-3.94;85.27;98369.38;5076100;28;21011;-75
2023/12/03 03:11:03;;;;;;;17.63;12.67;;;-2.80;77.50;;;-3.83;85.04;98363.28;5084759;28;20190;-75
2023/12/03 03:13:30;;;;;;;20.50;13.23;;;-2.80;77.50;;;-3.88;85.70;98345.13;5096166;28;20432;-75
2023/12/03 03:15:59;;;;;;;20.15;12.60;;;-2.80;77.70;;;-3.87;86.43;98361.81;5076000;28;20502;-74
2023/12/03 03:18:26;;;;;;;18.00;12.17;;;-2.80;77.70;;;-3.99;85.74;98353.88;5083384;28;20207;-75
2023/12/03 03:20:53;;;;;;;18.63;11.90;;;-2.80;78.00;;;-3.62;85.07;98357.31;5083367;28;20451;-74
2023/12/03 03:23:20;;;;;;;17.87;11.73;;;-2.70;77.80;;;-3.89;84.59;98339.97;5095470;28;20235;-75
2023/12/03 03:25:47;;;;;;;20.83;12.53;;;-2.70;77.10;;;-3.75;84.77;98354.78;5085030;28;20455;-75
2023/12/03 03:28:14;;;;;;;18.70;12.93;;;-2.70;77.10;;;-3.76;84.55;98342.53;5084849;28;20455;-75
2023/12/03 03:30:41;;;;;;;16.30;11.13;;;-2.60;77.10;;;-3.56;85.05;98348.94;5081065;28;20904;-74
2023/12/03 03:33:10;;;;;;;19.75;11.98;;;-2.60;77.40;;;-3.68;84.65;98360.44;5084704;28;20451;-75
2023/12/03 03:35:37;;;;;;;16.90;11.53;;;-2.60;77.20;;;-3.93;84.20;98338.50;5084372;28;20206;-73
2023/12/03 03:38:04;;;;;;;16.23;10.93;;;-2.70;77.10;;;-3.73;84.74;98369.53;5085313;28;20911;-74
2023/12/03 03:40:32;;;;;;;17.77;11.40;;;-2.70;76.80;;;-3.75;83.90;98366.16;5085929;28;20511;-75
2023/12/03 03:42:59;;;;;;;15.97;10.50;;;-2.70;76.70;;;-3.80;84.25;98368.31;5086647;28;20223;-73
2023/12/03 03:45:26;;;;;;;14.57;10.40;;;-2.70;76.70;;;-4.06;84.20;98335.97;5088501;28;20436;-74
2023/12/03 03:47:53;;;;;;;18.00;12.23;;;-2.70;76.50;;;-3.88;84.74;98362.75;5084341;28;20194;-73
2023/12/03 03:50:22;;;;;;;16.70;11.47;;;-2.70;77.00;;;-3.82;84.33;98369.38;5082140;28;20471;-75
2023/12/03 03:52:49;;;;;;;15.13;10.03;;;-2.70;77.60;;;-3.74;84.11;98377.59;5086417;28;20456;-75
2023/12/03 03:55:16;;;;;;;20.13;12.30;;;-2.70;77.20;;;-3.70;84.19;98387.81;5082479;28;20444;-74
2023/12/03 03:57:43;;;;;;;18.57;11.17;;;-2.70;77.10;;;-3.68;84.41;98386.84;5098719;28;20456;-75
2023/12/03 04:00:12;;;;;;;18.25;11.75;;;-2.70;77.00;;;-3.94;85.34;98382.56;5085472;28;20960;-75
2023/12/03 04:02:39;;;;;;;15.70;10.43;;;-2.70;77.50;;;-3.87;85.38;98373.22;5080322;28;20187;-75
2023/12/03 04:05:08;;;;;;;17.67;11.53;;;-2.70;77.40;;;-3.85;84.87;98391.59;5087459;28;20944;-75
2023/12/03 04:07:36;;;;;;;16.97;11.30;;;-2.70;77.10;;;-3.84;84.66;98388.81;5086925;28;20446;-75
2023/12/03 04:10:05;;;;;;;15.13;9.60;;;-2.70;77.10;;;-3.96;85.01;98395.00;5091405;28;20463;-74
2023/12/03 04:12:32;;;;;;;15.87;10.17;;;-2.90;76.90;;;-3.80;85.23;98389.44;5085242;28;20492;-74
2023/12/03 04:14:59;;;;;;;17.00;11.63;;;-2.80;77.20;;;-3.76;84.14;98395.34;5088313;28;20453;-74
2023/12/03 04:17:26;;;;;;;15.30;10.77;;;-2.70;77.00;;;-3.97;84.32;98385.41;5084641;28;20444;-73
2023/12/03 04:19:53;;;;;;;16.03;10.13;;;-2.70;76.70;;;-3.85;83.16;98391.59;5084866;28;20914;-74
2023/12/03 04:22:20;;;;;;;16.20;11.50;;;-2.80;76.40;;;-3.75;83.93;98397.84;5096877;28;20894;-75
2023/12/03 04:24:49;;;;;;;11.70;8.80;;;-2.80;76.90;;;-3.83;82.13;98405.53;5089685;28;20842;-74
2023/12/03 04:27:17;;;;;;;14.50;9.87;;;-2.70;76.10;;;-3.94;82.69;98408.13;5088273;28;20447;-74
2023/12/03 04:29:44;;;;;;;14.47;9.13;;;-2.80;75.70;;;-4.10;82.69;98397.84;5082710;28;20472;-73
2023/12/03 04:32:11;;;;;;;12.80;9.63;;;-2.90;75.70;;;-4.13;82.89;98396.28;5087916;28;20518;-74
2023/12/03 04:34:40;;;;;;;15.38;9.60;;;-3.00;75.60;;;-4.21;83.73;98403.91;5088013;28;20548;-74
2023/12/03 04:37:07;;;;;;;17.00;9.60;;;-3.10;75.80;;;-4.33;84.15;98414.38;5087397;28;20217;-74
2023/12/03 04:39:35;;;;;;;13.83;9.70;;;-3.20;76.10;;;-4.46;84.75;98418.91;5088601;28;20455;-75
2023/12/03 04:42:04;;;;;;;12.98;10.15;;;-3.30;76.50;;;-4.55;84.72;98429.13;5089159;28;20547;-74
2023/12/03 04:44:32;;;;;;;12.57;8.60;;;-3.40;76.50;;;-4.53;84.64;98428.19;5086532;28;20700;-75
2023/12/03 04:47:00;;;;;;;15.80;9.38;;;-3.40;76.60;;;-4.58;84.76;98421.44;5075999;28;20448;-74
2023/12/03 04:49:27;;;;;;;14.37;8.40;;;-3.40;76.50;;;-4.65;84.25;98417.53;5105380;28;20863;-76
2023/12/03 04:51:54;;;;;;;13.00;10.07;;;-3.40;76.10;;;-4.58;84.05;98405.63;5087703;28;20452;-75
2023/12/03 04:54:22;;;;;;;13.33;9.70;;;-3.50;76.20;;;-4.67;84.21;98422.09;5089643;28;20186;-75
2023/12/03 04:56:49;;;;;;;12.90;9.25;;;-3.50;76.40;;;-4.78;84.97;98424.63;5102928;28;21010;-75
2023/12/03 04:59:18;;;;;;;12.70;9.13;;;-3.70;76.50;;;-4.89;85.42;98417.47;5089537;28;20201;-74
2023/12/03 05:01:45;;;;;;;15.07;9.63;;;-3.70;76.60;;;-5.56;85.90;98335.97;5101924;28;20453;-74
2023/12/03 05:04:12;;;;;;;12.73;10.23;;;-3.80;76.90;;;-5.20;86.79;98409.94;5088447;28;20811;-74
2023/12/03 05:06:40;;;;;;;13.67;8.87;;;-3.90;77.40;;;-5.21;87.33;98425.84;5083858;28;20213;-73
2023/12/03 05:09:07;;;;;;;14.57;8.97;;;-4.00;77.80;;;-5.32;87.88;98427.41;5089777;28;20461;-74
2023/12/03 05:11:35;;;;;;;16.67;10.50;;;-4.00;77.90;;;-5.20;87.42;98423.09;5079318;28;20445;-74
2023/12/03 05:14:02;;;;;;;13.80;9.27;;;-4.10;78.10;;;-5.26;87.62;98415.59;5086166;28;20521;-75
2023/12/03 05:16:31;;;;;;;14.17;9.90;;;-4.20;78.10;;;-5.44;88.19;98417.72;5084185;28;20993;-74
2023/12/03 05:18:58;;;;;;;14.00;8.93;;;-4.20;79.00;;;-5.42;87.96;98416.66;5099151;28;20451;-75
2023/12/03 05:21:25;;;;;;;14.00;10.23;;;-4.20;79.10;;;-5.49;88.11;98425.94;5082444;28;20459;-75
2023/12/03 05:23:52;;;;;;;18.15;10.20;;;-4.30;78.70;;;-5.57;89.29;98420.31;5082763;28;20810;-75
2023/12/03 05:26:20;;;;;;;16.35;9.95;;;-4.40;79.40;;;-5.48;89.16;98430.25;5085668;28;20615;-74
2023/12/03 05:28:47;;;;;;;16.07;10.10;;;-4.40;79.90;;;-5.48;89.15;98432.03;5088710;28;20198;-74
2023/12/03 05:31:14;;;;;;;14.70;10.10;;;-4.40;79.70;;;-6.08;88.82;98356.16;5077670;28;20952;-75
2023/12/03 05:33:43;;;;;;;16.87;10.80;;;-4.50;80.10;;;-5.67;88.82;98421.91;5085629;28;20444;-75
2023/12/03 05:36:21;;;;;;;14.53;9.93;;;-4.50;80.50;;;-5.61;88.96;98442.56;5082645;28;20529;-75
2023/12/03 05:38:48;;;;;;;16.23;10.60;;;-4.60;80.30;;;-5.88;89.44;98428.50;5082809;28;20989;-75
2023/12/03 05:41:16;;;;;;;18.73;11.27;;;-4.70;80.90;;;-5.85;90.66;98456.38;5070804;28;21137;-75
2023/12/03 05:43:43;;;;;;;16.93;12.10;;;-4.80;81.20;;;-5.70;90.20;98462.44;5086931;28;20460;-74
2023/12/03 05:46:10;;;;;;;14.07;10.70;;;-4.70;82.30;;;-5.74;90.11;98469.69;5081677;28;20456;-74
2023/12/03 05:48:37;;;;;;;17.67;12.50;;;-4.60;82.80;;;-5.67;89.99;98467.50;5089024;28;20210;-75
2023/12/03 05:51:10;;;;;;;16.77;11.93;;;-4.50;82.10;;;-5.59;89.71;98467.00;5086034;28;20521;-76
2023/12/03 05:53:38;;;;;;;18.40;11.60;;;-4.50;81.30;;;-5.64;89.56;98471.72;5087433;28;20465;-75
2023/12/03 05:56:07;;;;;;;20.47;11.43;;;-4.50;81.30;;;-5.53;89.25;98479.75;5084014;28;20818;-75
2023/12/03 05:58:34;;;;;;;17.27;10.73;;;-4.40;81.30;;;-5.48;88.83;98469.75;5086400;28;20505;-76
2023/12/03 06:01:01;;;;;;;17.67;10.70;;;-4.30;80.90;;;-5.49;89.28;98477.75;5085691;28;20444;-74
2023/12/03 06:03:28;;;;;;;17.60;10.70;;;-4.30;80.50;;;-5.49;89.19;98496.19;5086842;28;20448;-74
2023/12/03 06:05:55;;;;;;;21.20;12.03;;;-4.30;80.40;;;-6.02;88.83;98375.97;5087561;28;21017;-73
2023/12/03 06:08:24;;;;;;;17.93;11.40;;;-4.30;80.20;;;-5.43;88.86;98478.19;5082138;28;20452;-73
2023/12/03 06:10:51;;;;;;;20.38;12.73;;;-4.30;80.30;;;-5.57;88.99;98487.00;5086807;28;20471;-75
2023/12/03 06:13:18;;;;;;;18.33;11.70;;;-4.40;80.00;;;-5.52;88.86;98488.50;5102665;28;20686;-74
2023/12/03 06:15:45;;;;;;;17.52;11.48;;;-4.30;80.20;;;-5.70;90.01;98473.78;5085258;28;20200;-75
2023/12/03 06:18:12;;;;;;;20.30;12.70;;;-4.40;80.40;;;-5.65;89.66;98493.75;5085866;28;20714;-74
2023/12/03 06:20:41;;;;;;;17.07;11.67;;;-4.40;80.70;;;-5.45;89.95;98502.97;5086088;28;20482;-74
2023/12/03 06:23:08;;;;;;;22.07;14.93;;;-4.30;81.30;;;-5.27;89.16;98504.34;5099102;28;20463;-73
2023/12/03 06:25:37;;;;;;;18.43;13.50;;;-4.10;80.90;;;-5.05;88.40;98512.59;5086889;28;20459;-75
2023/12/03 06:28:04;;;;;;;18.60;10.30;;;-4.00;80.60;;;-5.15;88.30;98481.59;5084964;28;20463;-74
2023/12/03 06:30:31;;;;;;;16.97;11.27;;;-3.90;79.90;;;-5.05;87.44;98495.00;5083597;28;20471;-74
2023/12/03 06:32:59;;;;;;;20.10;11.83;;;-3.80;79.60;;;-4.95;87.26;98513.66;5078590;28;20451;-74
2023/12/03 06:35:26;;;;;;;19.25;12.52;;;-3.80;78.90;;;-5.01;87.12;98508.81;5089900;28;20447;-75
2023/12/03 06:37:53;;;;;;;15.53;11.63;;;-3.90;78.60;;;-5.19;88.06;98511.75;5088953;28;20186;-75
2023/12/03 06:40:20;;;;;;;18.20;12.30;;;-4.00;78.70;;;-5.41;88.30;98500.00;5086227;28;20815;-74
2023/12/03 06:42:48;;;;;;;15.93;11.00;;;-4.10;78.90;;;-5.33;88.68;98509.19;5084601;28;20514;-75
2023/12/03 06:45:16;;;;;;;15.93;10.77;;;-4.20;79.30;;;-5.45;88.96;98509.06;5078603;28;20498;-73
2023/12/03 06:47:43;;;;;;;15.95;10.77;;;-4.20;79.60;;;-5.37;88.86;98498.00;5086764;28;20451;-73
2023/12/03 06:50:10;;;;;;;17.17;11.63;;;-4.10;79.90;;;-5.33;88.81;98517.09;5087671;28;20674;-74
2023/12/03 06:52:37;;;;;;;16.73;12.23;;;-4.10;79.70;;;-5.48;88.77;98516.31;5086495;28;20457;-75
2023/12/03 06:55:06;;;;;;;19.97;12.03;;;-4.20;79.40;;;-5.43;89.35;98519.50;5096597;28;20543;-73
2023/12/03 06:57:33;;;;;;;19.63;12.30;;;-4.20;79.50;;;-5.36;88.51;98519.94;5088145;28;20547;-75
2023/12/03 07:00:03;;;;;;;17.53;12.70;;;-4.20;79.60;;;-5.63;88.87;98491.84;5083125;28;20854;-74
2023/12/03 07:02:30;;;;;;;19.77;13.55;;;-4.20;79.50;;;-5.41;89.25;98522.88;5071795;28;20449;-77
2023/12/03 07:04:57;;;;;;;20.35;13.38;;;-4.10;79.50;;;-5.27;89.03;98537.75;5087025;28;20225;-77
2023/12/03 07:07:24;;;;;;;17.57;11.50;;;-4.10;79.50;;;-5.19;88.36;98521.44;5095641;28;20259;-76
2023/12/03 07:09:51;;;;;;;22.17;12.48;;;-3.90;79.60;;;-4.81;86.25;98535.59;5101002;28;20484;-76
2023/12/03 07:12:19;;;;;;;21.60;13.30;;;-3.70;79.00;;;-4.93;86.05;98537.28;5086726;28;20185;-76
2023/12/03 07:14:46;;;;;;;19.63;13.77;;;-3.70;77.80;;;-5.02;86.99;98528.22;5083964;28;20440;-78
2023/12/03 07:17:15;;;;;;;21.77;13.55;;;-3.70;77.90;;;-4.82;86.66;98549.72;5086508;28;20209;-78
2023/12/03 07:19:44;;;;;;;23.85;13.65;;;-3.70;78.10;;;-5.04;86.54;98549.38;5083691;28;20204;-77
2023/12/03 07:22:11;;;;;;;20.52;13.50;;;-3.70;77.60;;;-5.13;87.13;98547.38;5084993;28;20192;-77
2023/12/03 07:24:39;;;;;;;23.42;13.88;;;-3.80;77.60;;;-5.00;86.18;98531.56;5086858;28;20243;-77
2023/12/03 07:27:06;;;;;;;16.70;11.83;;;-3.70;77.90;;;-5.07;86.26;98540.88;5094076;28;20190;-77
2023/12/03 07:29:33;;;;;;;17.70;12.03;;;-3.70;77.60;;;-4.76;85.99;98547.50;5082734;28;20459;-78
2023/12/03 07:32:01;;;;;;;19.30;13.15;;;-3.60;77.80;;;-4.59;83.71;98527.91;5086632;28;20468;-76
2023/12/03 07:34:29;;;;;;;21.10;13.20;;;-3.40;77.20;;;-4.71;84.37;98545.41;5085724;28;20208;-79
2023/12/03 07:36:56;;;;;;;16.50;11.00;;;-3.40;76.60;;;-4.37;85.37;98547.50;5079674;28;20774;-76
2023/12/03 07:39:24;;;;;;;20.30;13.67;;;-3.30;77.40;;;-4.80;84.37;98543.41;5088122;28;20455;-76
2023/12/03 07:41:51;;;;;;;18.13;11.52;;;-3.30;76.40;;;-4.65;84.10;98559.97;5089569;28;20462;-78
2023/12/03 07:44:18;;;;;;;17.83;12.98;;;-3.40;76.30;;;-4.65;84.45;98567.03;5081781;28;20612;-78
2023/12/03 07:46:46;;;;;;;19.60;11.48;;;-3.40;76.20;;;-4.65;84.75;98562.59;5087673;28;20252;-76
2023/12/03 07:49:14;;;;;;;21.27;13.98;;;-3.40;76.40;;;-4.82;83.90;98533.91;5089664;28;20299;-77
2023/12/03 07:51:42;;;;;;;18.98;12.45;;;-3.40;76.00;;;-4.45;84.43;98569.13;5091006;28;20213;-77
2023/12/03 07:54:09;;;;;;;21.15;12.90;;;-3.30;76.60;;;-4.42;84.04;98553.09;5104507;28;20213;-78
2023/12/03 07:56:37;;;;;;;18.83;12.43;;;-3.30;76.40;;;-4.21;82.45;98580.72;5089518;28;20193;-78
2023/12/03 07:59:05;;;;;;;17.85;11.98;;;-3.10;76.00;;;-4.57;82.90;98555.00;5090660;28;20178;-77
2023/12/03 08:01:34;;;;;;;22.30;13.27;;;-3.20;75.60;;;-4.29;83.66;98589.19;5090823;28;20251;-76
2023/12/03 08:04:03;;;;;;;21.53;13.73;;;-3.20;76.20;;;-4.08;81.91;98586.84;5086209;28;20632;-77
2023/12/03 08:06:31;;;;;;;17.90;13.03;;;-3.00;75.70;;;-5.03;82.63;98505.44;5100343;28;20452;-77
2023/12/03 08:09:00;;;;;;;22.00;13.00;;;-3.20;75.10;;;-4.61;83.77;98589.59;5087134;28;20457;-77
2023/12/03 08:11:27;;;;;;;19.77;12.50;;;-3.30;75.50;;;-4.37;82.77;98589.72;5083201;28;20471;-76
2023/12/03 08:13:55;;;;;;;19.70;13.30;;;-3.20;75.50;;;-4.04;81.59;98582.19;5091235;28;20535;-78
2023/12/03 08:16:22;;;;;;;20.20;11.73;;;-2.90;75.60;;;-4.11;81.78;98597.63;5084599;28;20553;-76
2023/12/03 08:18:50;;;;;;;17.53;11.27;;;-2.90;75.20;;;-4.06;81.76;98605.22;5090439;28;20435;-77
2023/12/03 08:21:17;;;;;;;19.93;13.07;;;-2.90;74.80;;;-4.33;81.81;98604.38;5086946;28;20897;-77
2023/12/03 08:23:44;;;;;;;20.87;13.27;;;-2.90;74.60;;;-4.42;82.48;98605.03;5089410;28;20842;-77
2023/12/03 08:26:13;;;;;;;24.83;16.00;;;-3.00;74.60;;;-4.35;82.33;98579.06;5088578;28;20452;-76
2023/12/03 08:28:42;;;;;;;20.55;13.05;;;-3.00;74.90;;;-4.39;nan;98578.44;5083904;28;20443;-77
2023/12/03 08:31:10;;;;;;;23.90;15.50;;;-2.90;74.40;;;-4.33;82.04;98593.81;5083983;28;20218;-78
2023/12/03 08:33:37;;;;;;;21.77;13.87;;;-3.00;74.50;;;-4.31;82.11;98593.72;5086222;28;20441;-76
2023/12/03 08:36:05;;;;;;;21.77;14.50;;;-2.90;74.80;;;-4.04;81.54;98608.59;5088539;28;20444;-78
2023/12/03 08:38:32;;;;;;;23.07;13.70;;;-2.80;74.60;;;-4.17;81.51;98604.16;5085606;28;20452;-76
2023/12/03 08:41:00;;;;;;;25.08;15.27;;;-2.80;74.20;;;-4.22;81.42;98605.44;5084439;28;20440;-79
2023/12/03 08:43:28;;;;;;;20.87;13.00;;;-2.90;74.10;;;-4.04;81.07;98592.75;5087533;28;20684;-77
2023/12/03 08:45:56;;;;;;;19.97;12.30;;;-2.70;74.40;;;-3.86;79.84;98595.88;5081613;28;20451;-77
2023/12/03 08:48:23;;;;;;;20.10;13.50;;;-2.50;74.10;;;-3.24;78.40;98595.84;5097308;28;20447;-76
2023/12/03 08:50:50;;;;;;;21.00;13.80;;;-2.30;73.80;;;-2.99;76.71;98606.31;5089077;28;20964;-77
2023/12/03 08:53:19;;;;;;;21.60;14.03;;;-2.00;73.20;;;-3.02;76.03;98610.97;5089358;28;20994;-76
2023/12/03 08:55:46;;;;;;;21.27;12.67;;;-1.90;72.10;;;-3.17;76.73;98628.81;5088915;28;20951;-77
2023/12/03 08:58:13;;;;;;;24.60;13.23;;;-1.90;71.90;;;-2.97;78.81;98616.75;5081445;28;20556;-77
2023/12/03 09:00:42;;;;;;;19.20;13.27;;;-1.90;72.70;;;-3.32;80.91;98528.56;5082773;28;20459;-77
2023/12/03 09:03:09;;;;;;;17.73;13.33;;;-1.70;74.00;;;-2.61;78.11;98620.25;5095852;28;20449;-77
2023/12/03 09:05:36;;;;;;;22.70;14.70;;;-1.50;74.30;;;-2.81;76.29;98628.81;5083597;28;20537;-76
2023/12/03 09:08:03;;;;;;;21.47;13.77;;;-1.50;72.00;;;-2.53;78.37;98634.69;5080889;28;20448;-76
2023/12/03 09:10:30;;;;;;;26.87;15.00;;;-1.40;73.30;;;-2.37;76.15;98627.25;5080532;28;20467;-76
2023/12/03 09:12:58;;;;;;;21.63;13.23;;;-1.30;73.10;;;-1.79;80.74;98630.78;5069945;28;20444;-79
2023/12/03 09:15:25;;;;;;;20.13;12.60;;;-0.90;77.00;;;-2.45;75.16;98622.53;5084768;28;20537;-77
2023/12/03 09:17:53;;;;;;;18.48;12.57;;;-1.20;71.60;;;-2.04;78.74;98630.91;5071720;28;20449;-77
2023/12/03 09:20:21;;;;;;;22.30;13.80;;;-1.10;73.50;;;-2.17;78.13;98638.13;5066941;28;20225;-76
2023/12/03 09:22:48;;;;;;;19.63;13.00;;;-1.10;72.20;;;-1.98;77.54;98632.22;5075995;28;20448;-77
2023/12/03 09:25:16;;;;;;;22.27;13.93;;;-1.10;72.00;;;-2.14;74.77;98627.28;5073902;28;20468;-77
2023/12/03 09:27:43;;;;;;;21.77;14.27;;;-1.00;71.50;;;-1.81;73.87;98622.94;5085087;28;20503;-76
2023/12/03 09:30:11;;;;;;;17.17;13.10;;;-0.70;71.20;;;-1.68;76.08;98644.00;5082029;28;20795;-76
2023/12/03 09:32:39;;;;;;;19.03;12.03;;;-0.70;71.80;;;-1.85;72.83;98648.84;5086074;28;20482;-75
2023/12/03 09:35:08;;;;;;;24.97;15.33;;;-0.60;70.30;;;-1.42;73.21;98643.75;5084531;28;20622;-76
2023/12/03 09:37:35;;;;;;;25.70;14.83;;;-0.50;71.30;;;-1.40;77.60;98644.44;5097129;28;20451;-76
2023/12/03 09:40:03;;;;;;;22.30;14.67;;;-0.50;72.00;;;-1.95;73.37;98647.03;5095566;28;20456;-76
2023/12/03 09:42:36;;;;;;;20.90;14.80;;;-0.70;69.70;;;-1.56;74.06;98639.56;5079768;28;20493;-76
2023/12/03 09:45:07;;;;;;;21.70;14.57;;;-0.60;70.00;;;-2.15;72.29;98636.19;5080599;28;20445;-77
2023/12/03 09:47:36;;;;;;;20.43;12.83;;;-0.70;68.40;;;-2.39;72.69;98628.34;5075313;28;20453;-76
2023/12/03 09:50:07;;;;;;;19.43;12.67;;;-0.90;68.40;;;-1.77;73.28;98631.50;5077845;28;20452;-76
2023/12/03 09:52:37;;;;;;;24.77;15.50;;;-0.80;69.60;;;-1.50;73.17;98638.22;5082788;28;20848;-78
2023/12/03 09:55:05;;;;;;;18.93;13.30;;;-0.50;71.70;;;-1.54;69.99;98634.97;5087964;28;20871;-77
2023/12/03 09:57:36;;;;;;;18.57;12.33;;;-0.50;67.80;;;-1.75;70.34;98630.41;5087990;28;20460;-75
2023/12/03 10:00:07;;;;;;;22.60;14.33;;;-0.50;67.50;;;-1.93;71.70;98611.53;5085540;28;20522;-76
2023/12/03 10:02:35;;;;;;;21.37;13.70;;;-0.60;67.90;;;-1.90;71.42;98635.13;5082037;28;20583;-78
2023/12/03 10:05:02;;;;;;;19.73;13.23;;;-0.70;67.50;;;-1.80;70.80;98627.28;5083344;28;20458;-78
2023/12/03 10:07:31;;;;;;;23.43;15.37;;;-0.70;67.50;;;-2.23;72.42;98628.00;5090575;28;20451;-76
2023/12/03 10:10:00;;;;;;;20.30;13.23;;;-1.00;67.70;;;-2.03;71.36;98623.78;5077866;28;20864;-76